Ontario, CA (91764)

6:32 AM PDT on August 05, 2015 (GMT -0700)
Winery Ridge | | Change Station
CLOSE
Current Station
Personal Weather Station
Location: Rancho Cucamonga, CA
Elevation: 1263 ft
Nearby Weather Stations

Elev 1263 ft 34.11 °N, 117.61 °W | Updated 27 seconds ago

Mostly Cloudy
Mostly Cloudy
69.6 °F
Feels Like 69.6 °F
N
0.0
Wind Variable Wind from WNW
Gusts 0.0 mph

Today
High -- | Low -- °F
--% Chance of Precip.
Yesterday
High -- | Low -- °F
Precip. -- in
6:04 AM 7:47 PM
Waning Gibbous, 67% visible
Pressure 29.87 in
Visibility 10.0 miles
Clouds Few 18000 ft
Mostly Cloudy 25000 ft
Dew Point 56 °F
Humidity 61%
Rainfall 0.00 in
Snow Depth Not available.
UV 0.0 out of 12
Pollen 4.40 out of 12
Air Quality Not available.
Flu Activity Not available.
METAR KONT 051253Z 07003KT 10SM FEW180 BKN250 21/12 A2992 RMK AO2 SLP113 T02110117

More Conditions Fewer Conditions

Pressure 29.87 in
Visibility 10.0 miles
Clouds Few 18000 ft
Mostly Cloudy 25000 ft
Dew Point 56 °F
Humidity 61%
Rainfall 0.00 in
Snow Depth Not available.
UV 0.0 out of 12
Pollen 4.40 out of 12
Air Quality Not available.
Flu Activity Not available.
METAR KONT 051253Z 07003KT 10SM FEW180 BKN250 21/12 A2992 RMK AO2 SLP113 T02110117

More Conditions Fewer Conditions

10-Day Weather Forecast

×

Almanac

Astronomy

Aug. 05, 2015 Rise Set
Actual Time
Civil Twilight
Nautical Twilight
Astronomical Twilight
Moon
Length of Visible Light
Length of Day
Tomorrow will be .
, % of the Moon is Illuminated

Today's Extremes

State Highs State Lows

Community

WunderPhotos

Upload Photos

1,844,184 photos uploaded!

WunderBlogs® & News

Nearby

Air Quality

  Air Quality AQ Index Pollutant
Not available.

Snow Depth

Station Depth Elevation

Earthquake Activity

City Distance Mag. Time & Date
Minimum magnitude displayed is 2.5.

Coastal Water Temperatures

Place Temperature

Stations

Nearby Weather Stations

Station Location Temp. Windchill Dew Point Humidity Wind Precip. Elev Updated Type